createdAt,value
2017-08-20T08:00:58.612Z,7.40
2017-08-20T08:01:58.333Z,5.80
2017-08-20T08:03:51.250Z,5.80
2017-08-20T08:04:51.246Z,6.20
2017-08-20T08:06:44.511Z,5.90
2017-08-20T08:07:44.199Z,5.90
2017-08-20T08:09:37.143Z,6.10
2017-08-20T08:10:37.099Z,5.50
2017-08-20T08:12:30.513Z,5.20
2017-08-20T08:13:30.072Z,5.30
2017-08-20T08:15:23.023Z,5.90
2017-08-20T08:16:23.017Z,6.10
2017-08-20T08:18:16.341Z,5.90
2017-08-20T08:19:15.962Z,6.00
2017-08-20T08:21:08.940Z,5.80
2017-08-20T08:22:08.940Z,6.50
2017-08-20T08:24:02.190Z,5.90
2017-08-20T08:25:01.866Z,6.30
2017-08-20T08:26:55.312Z,5.70
2017-08-20T08:27:55.304Z,5.60
2017-08-20T08:29:48.318Z,6.20
2017-08-20T08:30:48.239Z,5.90
2017-08-20T08:32:41.259Z,6.70
2017-08-20T08:33:41.210Z,7.60
2017-08-20T08:35:34.433Z,6.50
2017-08-20T08:36:34.132Z,6.50
2017-08-20T08:38:27.123Z,5.80
2017-08-20T08:39:27.087Z,6.70
2017-08-20T08:41:20.682Z,5.50
2017-08-20T08:42:20.677Z,5.90
2017-08-20T08:44:13.705Z,6.00
2017-08-20T08:45:13.630Z,5.70
2017-08-20T08:47:06.609Z,6.20
2017-08-20T08:48:06.579Z,6.00
2017-08-20T08:49:59.615Z,5.60
2017-08-20T08:50:59.528Z,5.70
2017-08-20T08:52:52.813Z,5.90
2017-08-20T08:53:52.510Z,6.10
2017-08-20T08:55:45.436Z,6.00
2017-08-20T08:56:45.404Z,6.00
2017-08-20T08:58:39.703Z,6.00
2017-08-20T08:59:39.338Z,5.80
2017-08-20T09:01:32.838Z,5.60
2017-08-20T09:02:32.781Z,5.80
2017-08-20T09:04:26.120Z,6.10
2017-08-20T09:05:25.738Z,6.30
2017-08-20T09:07:18.716Z,6.10
2017-08-20T09:08:18.678Z,6.10
2017-08-20T09:10:12.004Z,5.20
2017-08-20T09:11:11.632Z,5.90
2017-08-20T09:13:04.621Z,6.10
2017-08-20T09:14:04.592Z,6.10
2017-08-20T09:15:58.391Z,6.50
2017-08-20T09:16:58.069Z,6.20
2017-08-20T09:18:51.024Z,6.40
2017-08-20T09:19:50.962Z,5.60
2017-08-20T09:21:44.718Z,6.50
2017-08-20T09:22:44.414Z,6.30
2017-08-20T09:24:37.409Z,6.30
2017-08-20T09:25:37.364Z,5.60
2017-08-20T09:27:30.496Z,6.70
2017-08-20T09:28:30.590Z,7.20
2017-08-20T09:30:23.263Z,7.00
2017-08-20T09:31:23.251Z,6.90
2017-08-20T09:33:16.335Z,6.40
2017-08-20T09:34:16.236Z,6.80
2017-08-20T09:36:09.217Z,7.30
2017-08-20T09:37:09.192Z,7.40
2017-08-20T09:39:02.182Z,7.00
2017-08-20T09:40:02.134Z,6.80
2017-08-20T09:41:55.106Z,6.70
2017-08-20T09:42:55.073Z,7.20
2017-08-20T09:44:48.115Z,6.30
2017-08-20T09:45:48.015Z,6.50
2017-08-20T09:47:40.974Z,6.50
2017-08-20T09:48:41.120Z,6.50
2017-08-20T09:50:33.931Z,6.30
2017-08-20T09:51:33.921Z,6.70
2017-08-20T09:53:27.397Z,6.60
2017-08-20T09:54:27.370Z,6.50
2017-08-20T09:56:20.404Z,7.00
2017-08-20T09:57:20.313Z,6.30
2017-08-20T09:59:13.294Z,6.40
2017-08-20T10:00:13.252Z,6.30
2017-08-20T10:02:06.460Z,6.60
2017-08-20T10:03:06.367Z,6.50
2017-08-20T10:04:59.617Z,7.10
2017-08-20T10:05:59.465Z,6.80
2017-08-20T10:07:52.489Z,6.70
2017-08-20T10:08:52.426Z,7.00
2017-08-20T10:10:45.378Z,6.70
2017-08-20T10:11:45.364Z,7.00
2017-08-20T10:13:38.455Z,6.10
2017-08-20T10:14:38.303Z,6.50
2017-08-20T10:16:31.249Z,6.60
2017-08-20T10:17:31.249Z,6.80
2017-08-20T10:19:24.325Z,7.40
2017-08-20T10:20:24.228Z,7.60
2017-08-20T10:22:17.146Z,6.70
2017-08-20T10:23:17.135Z,6.90
2017-08-20T10:25:10.656Z,6.80
2017-08-20T10:26:10.575Z,7.50
2017-08-20T10:28:03.596Z,7.90
2017-08-20T10:29:03.526Z,8.00
2017-08-20T10:30:56.592Z,7.70
2017-08-20T10:31:56.500Z,7.90
2017-08-20T10:33:49.419Z,8.50
2017-08-20T10:34:49.416Z,8.00
2017-08-20T10:36:42.485Z,8.50
2017-08-20T10:37:42.373Z,8.70
2017-08-20T10:39:36.189Z,8.80
2017-08-20T10:40:35.824Z,8.60
2017-08-20T10:42:28.955Z,8.80
2017-08-20T10:43:28.765Z,9.40
2017-08-20T10:45:22.258Z,9.50
2017-08-20T10:46:22.235Z,9.20
2017-08-20T10:48:15.217Z,9.90
2017-08-20T10:49:15.223Z,9.80
2017-08-20T10:51:08.643Z,9.00
2017-08-20T10:52:08.637Z,9.70
2017-08-20T10:54:01.743Z,9.60
2017-08-20T10:55:01.567Z,10.20
2017-08-20T10:56:55.029Z,10.20
2017-08-20T10:57:55.012Z,10.10
2017-08-20T10:59:48.059Z,9.90
2017-08-20T11:00:47.983Z,10.30
2017-08-20T11:02:40.937Z,10.70
2017-08-20T11:03:40.956Z,11.10
2017-08-20T11:05:34.425Z,10.50
2017-08-20T11:06:34.391Z,11.00
2017-08-20T11:08:27.305Z,12.00
2017-08-20T11:09:27.304Z,12.00
2017-08-20T11:11:20.408Z,11.80
2017-08-20T11:12:20.316Z,12.70
2017-08-20T11:14:13.281Z,13.80
2017-08-20T11:15:13.256Z,13.00
2017-08-20T11:17:06.287Z,13.60
2017-08-20T11:18:06.272Z,13.80
2017-08-20T11:19:59.165Z,14.80
2017-08-20T11:20:59.176Z,14.80
2017-08-20T11:22:52.261Z,15.20
2017-08-20T11:23:52.127Z,15.00
2017-08-20T11:25:45.089Z,14.90
2017-08-20T11:26:45.529Z,15.70
2017-08-20T11:28:38.163Z,16.60
2017-08-20T11:29:38.010Z,15.60
2017-08-20T11:31:30.958Z,16.80
2017-08-20T11:32:30.967Z,16.60
2017-08-20T11:34:24.016Z,16.80
2017-08-20T11:35:23.906Z,17.60
2017-08-20T11:37:16.873Z,18.30
2017-08-20T11:38:16.867Z,18.80
2017-08-20T11:40:09.915Z,19.50
2017-08-20T11:41:09.867Z,19.30
2017-08-20T11:43:02.780Z,20.00
2017-08-20T11:44:02.774Z,19.70
2017-08-20T11:45:56.015Z,16.40
2017-08-20T11:46:55.746Z,13.30
2017-08-20T11:48:48.715Z,10.80
2017-08-20T11:49:48.681Z,9.30
2017-08-20T11:51:41.650Z,6.90
2017-08-20T11:52:41.642Z,6.00
2017-08-20T11:54:34.614Z,5.20
2017-08-20T11:55:34.576Z,5.60
2017-08-20T11:57:27.534Z,4.50
2017-08-20T11:58:27.510Z,4.70
2017-08-20T12:00:20.473Z,4.10
2017-08-20T12:01:20.449Z,3.90
2017-08-20T12:03:13.550Z,4.50
2017-08-20T12:04:14.388Z,5.10
2017-08-20T12:06:06.356Z,5.10
2017-08-20T12:07:06.377Z,4.80
2017-08-20T12:09:00.024Z,5.10
2017-08-20T12:09:59.784Z,6.30
2017-08-20T12:11:53.243Z,5.70
2017-08-20T12:12:53.235Z,5.30
2017-08-20T12:14:46.291Z,5.40
2017-08-20T12:15:46.167Z,5.80
2017-08-20T12:17:39.269Z,5.30
2017-08-20T12:18:39.110Z,4.80
2017-08-20T12:20:32.261Z,4.90
2017-08-20T12:21:32.058Z,5.10
2017-08-20T12:23:25.019Z,4.50
2017-08-20T12:24:25.014Z,4.60
2017-08-20T12:26:18.037Z,4.40
2017-08-20T12:27:18.041Z,4.50
2017-08-20T12:29:11.416Z,4.50
2017-08-20T12:30:11.388Z,4.50
2017-08-20T12:32:04.420Z,4.20
2017-08-20T12:33:04.337Z,4.30
2017-08-20T12:34:57.749Z,5.00
2017-08-20T12:35:57.734Z,5.30
2017-08-20T12:37:50.951Z,6.90
2017-08-20T12:38:50.672Z,7.30
2017-08-20T12:40:43.621Z,7.80
2017-08-20T12:41:43.611Z,8.00
2017-08-20T12:43:36.700Z,8.20
2017-08-20T12:44:36.557Z,8.50
2017-08-20T12:46:29.543Z,8.20
2017-08-20T12:47:29.516Z,8.50
2017-08-20T12:49:22.531Z,9.20
2017-08-20T12:50:22.440Z,9.10
2017-08-20T12:52:15.381Z,8.30
2017-08-20T12:53:15.373Z,8.60
2017-08-20T12:55:08.639Z,8.10
2017-08-20T12:56:08.336Z,7.50
2017-08-20T12:58:01.281Z,7.70
2017-08-20T12:59:01.290Z,8.20
2017-08-20T13:00:54.748Z,7.90
2017-08-20T13:01:54.708Z,7.20
2017-08-20T13:03:47.654Z,7.30
2017-08-20T13:04:47.641Z,7.10
2017-08-20T13:06:40.626Z,6.00
2017-08-20T13:07:40.575Z,6.10
2017-08-20T13:09:33.531Z,5.60
2017-08-20T13:10:33.516Z,5.60
2017-08-20T13:12:26.574Z,5.60
2017-08-20T13:13:28.887Z,5.60
2017-08-20T13:15:19.418Z,5.70
2017-08-20T13:16:19.426Z,5.50
2017-08-20T13:18:12.431Z,5.10
2017-08-20T13:19:12.387Z,4.60
2017-08-20T13:21:05.646Z,4.80
2017-08-20T13:22:05.314Z,4.90
2017-08-20T13:23:58.939Z,5.60
2017-08-20T13:24:58.754Z,4.90
2017-08-20T13:26:51.711Z,5.10
2017-08-20T13:27:51.698Z,4.30
2017-08-20T13:29:44.699Z,4.50
2017-08-20T13:30:44.657Z,4.30
2017-08-20T13:32:37.605Z,4.70
2017-08-20T13:33:37.601Z,5.00
2017-08-20T13:35:30.617Z,4.40
2017-08-20T13:36:30.534Z,4.80
2017-08-20T13:38:24.228Z,4.10
2017-08-20T13:39:23.483Z,4.40
2017-08-20T13:40:23.558Z,4.10
2017-08-20T13:41:23.526Z,4.30
2017-08-20T13:42:23.585Z,3.80
2017-08-20T13:43:23.572Z,4.20
2017-08-20T13:45:23.610Z,4.20
2017-08-20T13:46:23.635Z,4.20
2017-08-20T13:47:23.669Z,3.80
2017-08-20T13:48:23.683Z,4.30
2017-08-20T13:49:23.698Z,4.00
2017-08-20T13:50:24.019Z,4.10
2017-08-20T13:51:23.744Z,3.80
2017-08-20T13:52:23.801Z,3.90
2017-08-20T13:53:23.912Z,3.70
2017-08-20T13:54:23.827Z,4.10
2017-08-20T13:55:23.855Z,3.80
2017-08-20T13:56:24.177Z,4.10
2017-08-20T13:57:23.885Z,4.20
2017-08-20T14:01:24.027Z,3.10
2017-08-20T14:02:24.292Z,3.60
2017-08-20T14:03:24.078Z,3.30
2017-08-20T14:04:24.064Z,3.80
2017-08-20T14:05:24.062Z,3.30
2017-08-20T14:06:24.736Z,3.50
2017-08-20T14:07:24.115Z,3.80
2017-08-20T14:13:24.280Z,3.80
2017-08-20T14:14:24.731Z,3.20
2017-08-20T14:15:24.381Z,3.60
2017-08-20T14:16:24.372Z,3.50
2017-08-20T14:17:24.474Z,3.00
2017-08-20T14:18:24.394Z,3.20
2017-08-20T14:19:24.416Z,3.30
2017-08-20T14:20:24.410Z,3.20
2017-08-20T14:21:24.817Z,3.20
2017-08-20T14:22:24.478Z,3.30
2017-08-20T14:26:24.572Z,3.10
2017-08-20T14:27:24.850Z,3.20
2017-08-20T14:28:24.605Z,3.60
2017-08-20T14:29:24.671Z,2.90
2017-08-20T14:30:24.776Z,2.90
2017-08-20T14:31:25.688Z,3.40
2017-08-20T14:32:24.726Z,3.10
2017-08-20T14:33:24.839Z,3.40
2017-08-20T14:34:24.724Z,3.10
2017-08-20T14:36:24.757Z,2.90
2017-08-20T14:39:24.928Z,3.10
2017-08-20T14:40:24.985Z,3.20
2017-08-20T14:41:24.889Z,3.30
2017-08-20T14:43:25.011Z,2.80
2017-08-20T14:44:25.007Z,2.90
2017-08-20T14:45:25.309Z,3.20
2017-08-20T14:47:25.061Z,3.20
2017-08-20T14:48:25.110Z,3.20
2017-08-20T14:49:25.112Z,2.60
2017-08-20T14:50:25.167Z,2.80
2017-08-20T14:51:25.153Z,3.20
2017-08-20T14:52:25.117Z,2.80
2017-08-20T14:55:25.198Z,3.00
2017-08-20T14:56:25.587Z,2.80
2017-08-20T14:58:25.301Z,3.00
2017-08-20T14:59:25.347Z,3.00
2017-08-20T15:00:25.312Z,3.10
2017-08-20T15:01:25.353Z,3.40
2017-08-20T15:02:25.756Z,3.50
2017-08-20T15:03:25.411Z,2.70
2017-08-20T15:04:25.429Z,3.10
2017-08-20T15:05:25.450Z,3.10
2017-08-20T15:06:25.475Z,2.90
2017-08-20T15:07:25.476Z,3.00
2017-08-20T15:08:25.804Z,3.00
2017-08-20T15:11:25.549Z,2.80
2017-08-20T15:12:25.573Z,3.10
2017-08-20T15:13:25.605Z,2.90
2017-08-20T15:14:25.913Z,2.90
2017-08-20T15:15:25.633Z,2.70
2017-08-20T15:16:25.680Z,2.90
2017-08-20T15:17:25.680Z,2.70
2017-08-20T15:18:25.714Z,2.70
2017-08-20T15:19:25.803Z,2.80
2017-08-20T15:20:26.043Z,2.80
2017-08-20T15:21:25.765Z,2.50
2017-08-20T15:22:25.799Z,2.60
2017-08-20T15:23:25.813Z,2.70
2017-08-20T15:24:26.531Z,2.60
2017-08-20T15:25:25.868Z,2.70
2017-08-20T15:26:26.197Z,2.50
2017-08-20T15:27:25.918Z,2.90
2017-08-20T15:28:25.941Z,2.90
2017-08-20T15:29:25.968Z,2.70
2017-08-20T15:30:26.607Z,2.70
2017-08-20T15:31:26.005Z,2.40
2017-08-20T15:32:26.312Z,2.80
2017-08-20T15:33:26.038Z,2.60
2017-08-20T15:34:26.073Z,2.90
2017-08-20T15:35:26.120Z,3.00
2017-08-20T15:36:26.129Z,3.10
2017-08-20T15:37:26.182Z,2.70
2017-08-20T15:38:26.521Z,2.90
2017-08-20T15:39:27.083Z,2.60
2017-08-20T15:40:26.217Z,2.60
2017-08-20T15:41:26.230Z,2.80
2017-08-20T15:42:26.274Z,2.80
2017-08-20T15:43:26.278Z,2.90
2017-08-20T15:44:26.580Z,2.70
2017-08-20T15:45:26.328Z,2.60
2017-08-20T15:46:26.358Z,2.60
2017-08-20T15:47:26.363Z,2.70
2017-08-20T15:48:26.462Z,2.70
2017-08-20T15:49:26.407Z,2.60
2017-08-20T15:50:27.444Z,2.60
2017-08-20T15:51:26.512Z,2.90
2017-08-20T15:52:26.488Z,2.90
2017-08-20T15:53:26.529Z,2.80
2017-08-20T15:54:26.525Z,2.70
2017-08-20T15:55:26.585Z,2.70
2017-08-20T15:56:28.420Z,2.60
2017-08-20T15:57:26.609Z,2.40
2017-08-20T15:58:26.619Z,2.60
2017-08-20T15:59:28.674Z,2.60
2017-08-20T16:00:26.684Z,2.40
2017-08-20T16:01:26.732Z,2.70
2017-08-20T16:02:27.030Z,2.90
2017-08-20T16:03:26.752Z,2.50
2017-08-20T16:04:26.793Z,2.70
2017-08-20T16:05:26.779Z,2.90
2017-08-20T16:06:26.831Z,2.50
2017-08-20T16:07:26.842Z,2.90
2017-08-20T16:08:27.167Z,2.70
2017-08-20T16:09:26.871Z,2.70
2017-08-20T16:10:26.918Z,2.90
2017-08-20T16:11:26.918Z,2.40
2017-08-20T16:12:26.942Z,2.50
2017-08-20T16:13:28.183Z,2.70
2017-08-20T16:14:27.300Z,3.20
2017-08-20T16:15:27.047Z,2.70
2017-08-20T16:16:27.099Z,3.10
2017-08-20T16:17:27.084Z,3.10
2017-08-20T16:18:27.262Z,3.10
2017-08-20T16:19:27.132Z,3.00
2017-08-20T16:20:27.264Z,2.70
2017-08-20T16:21:27.464Z,2.80
2017-08-20T16:22:27.324Z,3.00
2017-08-20T16:23:27.210Z,3.40
2017-08-20T16:24:27.221Z,2.80
2017-08-20T16:26:27.421Z,3.10
2017-08-20T16:27:27.743Z,2.90
2017-08-20T16:28:27.355Z,3.40
2017-08-20T16:29:31.332Z,2.70
2017-08-20T16:30:27.417Z,3.10
2017-08-20T16:31:27.500Z,3.50
2017-08-20T16:32:28.648Z,3.10
2017-08-20T16:33:27.478Z,3.30
2017-08-20T16:36:33.993Z,3.70
2017-08-20T16:37:34.008Z,3.10
2017-08-20T16:39:26.928Z,3.00
2017-08-20T16:40:26.938Z,3.20
2017-08-20T16:42:19.964Z,3.20
2017-08-20T16:43:19.867Z,3.40
2017-08-20T16:45:12.988Z,3.20
2017-08-20T16:46:12.824Z,3.30
2017-08-20T16:48:05.947Z,3.30
2017-08-20T16:49:05.744Z,3.30
2017-08-20T16:50:58.708Z,3.40
2017-08-20T16:51:58.692Z,3.80
2017-08-20T16:53:51.650Z,3.40
2017-08-20T16:54:51.646Z,3.20
2017-08-20T16:56:44.605Z,3.30
2017-08-20T16:57:44.588Z,3.30
2017-08-20T16:59:37.556Z,3.30
2017-08-20T17:00:37.539Z,3.50
2017-08-20T17:02:30.477Z,3.60
2017-08-20T17:03:30.501Z,3.60
2017-08-20T17:05:24.365Z,3.90
2017-08-20T17:06:23.903Z,3.80
2017-08-20T17:08:16.854Z,3.40
2017-08-20T17:09:16.855Z,3.50
2017-08-20T17:11:09.862Z,3.60
2017-08-20T17:12:09.793Z,3.50
2017-08-20T17:14:02.753Z,3.50
2017-08-20T17:15:02.742Z,3.50
2017-08-20T17:16:56.214Z,3.70
2017-08-20T17:17:56.187Z,3.60
2017-08-20T17:19:49.160Z,4.00
2017-08-20T17:20:49.119Z,4.10
2017-08-20T17:22:42.565Z,4.20
2017-08-20T17:23:42.551Z,3.70
2017-08-20T17:25:35.513Z,3.60
2017-08-20T17:26:35.521Z,3.40
2017-08-20T17:28:28.753Z,3.30
2017-08-20T17:29:28.452Z,3.90
2017-08-20T17:30:28.479Z,3.70
2017-08-20T17:31:28.511Z,3.70
2017-08-20T17:32:28.520Z,3.60
2017-08-20T17:33:28.830Z,3.40
2017-08-20T17:34:28.586Z,3.80
2017-08-20T17:35:28.626Z,3.30
2017-08-20T17:36:28.628Z,3.10
2017-08-20T17:37:28.858Z,3.40
2017-08-20T17:38:28.705Z,3.20
2017-08-20T17:39:28.981Z,3.50
2017-08-20T17:40:29.378Z,3.60
2017-08-20T17:41:28.736Z,3.10
2017-08-20T17:42:28.765Z,3.70
2017-08-20T17:43:29.386Z,3.40
2017-08-20T17:44:28.827Z,3.70
2017-08-20T17:45:29.134Z,3.40
2017-08-20T17:46:28.869Z,3.30
2017-08-20T17:47:28.911Z,3.20
2017-08-20T17:48:28.892Z,3.40
2017-08-20T17:49:28.925Z,3.30
2017-08-20T17:50:28.945Z,3.10
2017-08-20T17:51:29.237Z,3.30
2017-08-20T17:52:28.986Z,3.20
2017-08-20T17:53:29.000Z,3.30
2017-08-20T17:54:29.036Z,3.40
2017-08-20T17:55:29.069Z,3.10
2017-08-20T17:56:29.076Z,3.60
2017-08-20T17:57:29.389Z,3.00
2017-08-20T17:58:29.125Z,3.00
2017-08-20T17:59:29.179Z,3.20
2017-08-20T18:00:29.193Z,3.30
2017-08-20T18:01:29.195Z,2.90
2017-08-20T18:02:29.222Z,3.50
2017-08-20T18:03:29.569Z,3.10
2017-08-20T18:04:29.261Z,3.40
2017-08-20T18:05:29.290Z,3.50
2017-08-20T18:06:29.339Z,3.50
2017-08-20T18:07:29.342Z,3.00
2017-08-20T18:08:29.353Z,3.20
2017-08-20T18:09:29.402Z,3.20
2017-08-20T18:10:29.724Z,3.00
2017-08-20T18:11:29.865Z,3.00
2017-08-20T18:12:29.816Z,2.90
2017-08-20T18:13:29.477Z,2.90
2017-08-20T18:14:29.516Z,3.10
2017-08-20T18:15:30.173Z,3.30
2017-08-20T18:16:29.841Z,3.40
2017-08-20T18:17:29.572Z,3.10
2017-08-20T18:18:29.585Z,3.10
2017-08-20T18:19:29.619Z,3.00
2017-08-20T18:20:29.677Z,3.10
2017-08-20T18:21:29.658Z,3.20
2017-08-20T18:22:29.690Z,2.90
2017-08-20T18:23:50.720Z,2.90
2017-08-20T18:24:29.766Z,3.10
2017-08-20T18:25:29.765Z,3.10
2017-08-20T18:26:29.800Z,2.80
2017-08-20T18:27:29.816Z,3.00
2017-08-20T18:28:29.837Z,2.80
2017-08-20T18:29:29.844Z,3.10
2017-08-20T18:30:30.178Z,3.10
2017-08-20T18:32:29.944Z,3.20
2017-08-20T18:33:29.932Z,2.80
2017-08-20T18:34:29.973Z,3.10
2017-08-20T18:35:29.983Z,3.30
2017-08-20T18:36:30.023Z,3.10
2017-08-20T18:37:30.384Z,2.80
2017-08-20T18:38:30.059Z,3.20
2017-08-20T18:39:30.073Z,3.00
2017-08-20T18:40:30.095Z,2.80
2017-08-20T18:41:31.120Z,3.40
2017-08-20T18:42:30.142Z,3.00
2017-08-20T18:43:30.188Z,3.00
2017-08-20T18:44:30.478Z,2.90
2017-08-20T18:45:30.235Z,3.20
2017-08-20T18:46:30.239Z,3.30
2017-08-20T18:47:30.274Z,3.00
2017-08-20T18:48:30.302Z,3.10
2017-08-20T18:49:30.314Z,3.20
2017-08-20T18:50:30.341Z,3.10
2017-08-20T18:51:30.658Z,3.10
2017-08-20T18:52:30.433Z,2.90
2017-08-20T18:53:30.410Z,3.20
2017-08-20T18:55:30.476Z,3.20
2017-08-20T18:56:30.477Z,3.10
2017-08-20T18:57:30.496Z,3.10
2017-08-20T18:59:30.630Z,3.10
2017-08-20T19:00:30.570Z,3.20
2017-08-20T19:01:30.592Z,2.80
2017-08-20T19:02:30.608Z,3.40
2017-08-20T19:03:30.633Z,3.30
2017-08-20T19:04:30.691Z,3.40
2017-08-20T19:05:30.971Z,3.20
2017-08-20T19:06:30.757Z,3.20
2017-08-20T19:07:30.756Z,2.90
2017-08-20T19:08:30.751Z,3.40
2017-08-20T19:09:30.783Z,3.10
2017-08-20T19:10:30.806Z,3.20
2017-08-20T19:11:30.831Z,3.30
2017-08-20T19:12:31.150Z,3.30
2017-08-20T19:13:30.867Z,3.50
2017-08-20T19:14:30.895Z,3.50
2017-08-20T19:15:30.916Z,3.10
2017-08-20T19:16:30.942Z,3.10
2017-08-20T19:17:30.961Z,3.30
2017-08-20T19:18:31.290Z,2.90
2017-08-20T19:19:31.017Z,2.80
2017-08-20T19:20:31.032Z,2.90
2017-08-20T19:21:31.090Z,3.40
2017-08-20T19:22:31.077Z,3.00
2017-08-20T19:23:31.924Z,3.40
2017-08-20T19:24:31.427Z,3.10
2017-08-20T19:25:31.977Z,3.00
2017-08-20T19:26:31.170Z,3.00
2017-08-20T19:27:31.191Z,3.40
2017-08-20T19:28:31.225Z,2.70
2017-08-20T19:29:31.249Z,3.10
2017-08-20T19:30:31.566Z,3.20
2017-08-20T19:32:31.313Z,2.80
2017-08-20T19:33:31.342Z,2.80
2017-08-20T19:34:31.375Z,3.10
2017-08-20T19:35:31.391Z,3.00
2017-08-20T19:36:31.693Z,2.90
2017-08-20T19:37:31.435Z,3.20
2017-08-20T19:38:31.471Z,2.80
2017-08-20T19:39:31.484Z,3.30
2017-08-20T19:40:31.504Z,3.20
2017-08-20T19:41:31.542Z,3.30
2017-08-20T19:42:32.014Z,3.10
2017-08-20T19:43:31.627Z,2.90
2017-08-20T19:44:31.609Z,2.90
2017-08-20T19:45:31.613Z,3.30
2017-08-20T19:46:31.713Z,3.00
2017-08-20T19:47:31.683Z,3.10
2017-08-20T19:48:31.685Z,3.20
2017-08-20T19:49:32.002Z,2.70
2017-08-20T19:50:32.381Z,3.00
2017-08-20T19:51:31.771Z,3.10
2017-08-20T19:52:31.780Z,3.10
2017-08-20T19:53:31.805Z,2.80
2017-08-20T19:54:31.843Z,3.30
2017-08-20T19:55:32.146Z,2.80
2017-08-20T19:56:32.880Z,3.40
2017-08-20T19:57:31.891Z,3.10
2017-08-20T19:58:31.923Z,2.80
2017-08-20T19:59:31.969Z,3.40
2017-08-20T20:00:32.003Z,2.90
2017-08-20T20:01:31.992Z,2.90
2017-08-20T20:02:32.060Z,2.70
2017-08-20T20:03:32.039Z,3.00
2017-08-20T20:04:32.059Z,3.10
2017-08-20T20:05:32.086Z,3.10
2017-08-20T20:06:32.421Z,2.80
2017-08-20T20:07:32.161Z,3.20
2017-08-20T20:08:32.166Z,2.90
2017-08-20T20:09:32.173Z,3.20
2017-08-20T20:10:32.209Z,3.60
2017-08-20T20:11:32.235Z,2.90
2017-08-20T20:12:32.535Z,3.00
2017-08-20T20:13:32.284Z,3.20
2017-08-20T20:14:32.294Z,3.10
2017-08-20T20:15:32.312Z,3.20
2017-08-20T20:16:32.384Z,3.30
2017-08-20T20:17:32.362Z,3.00
2017-08-20T20:18:32.703Z,2.90
2017-08-20T20:19:32.403Z,3.00
2017-08-20T20:20:32.458Z,2.80
2017-08-20T20:21:32.477Z,3.40
2017-08-20T20:22:32.488Z,3.00
2017-08-20T20:23:32.567Z,3.10
2017-08-20T20:24:32.526Z,3.00
2017-08-20T20:25:32.839Z,2.80
2017-08-20T20:26:33.396Z,3.20
2017-08-20T20:27:32.598Z,3.30
2017-08-20T20:28:32.632Z,3.50
2017-08-20T20:29:32.682Z,2.90
2017-08-20T20:30:32.672Z,3.20
2017-08-20T20:31:33.410Z,3.00
2017-08-20T20:32:33.011Z,3.20
2017-08-20T20:33:32.754Z,3.00
2017-08-20T20:34:33.400Z,3.00
2017-08-20T20:35:32.801Z,2.80
2017-08-20T20:36:32.806Z,3.10
2017-08-20T20:37:32.830Z,3.10
2017-08-20T20:38:33.155Z,2.80
2017-08-20T20:39:32.904Z,3.00
2017-08-20T20:40:32.910Z,2.90
2017-08-20T20:41:32.945Z,2.80
2017-08-20T20:42:32.950Z,2.90
2017-08-20T20:43:33.009Z,3.20
2017-08-20T20:44:32.998Z,3.10
2017-08-20T20:45:33.300Z,2.80
2017-08-20T20:46:33.034Z,3.00
2017-08-20T20:47:33.095Z,3.10
2017-08-20T20:48:33.123Z,2.80
2017-08-20T20:49:33.115Z,3.20
2017-08-20T20:50:33.160Z,3.00
2017-08-20T20:51:33.492Z,2.90
2017-08-20T20:52:33.186Z,2.80
2017-08-20T20:53:33.276Z,2.70
2017-08-20T20:54:33.906Z,3.10
2017-08-20T20:55:33.283Z,3.10
2017-08-20T20:56:33.284Z,2.70
2017-08-20T20:57:33.599Z,3.10
2017-08-20T20:58:33.329Z,3.10
2017-08-20T20:59:33.349Z,2.80
2017-08-20T21:00:33.391Z,2.80
2017-08-20T21:01:33.389Z,3.10
2017-08-20T21:02:33.428Z,3.20
2017-08-20T21:03:33.444Z,2.90
2017-08-20T21:04:33.753Z,3.00
2017-08-20T21:05:33.473Z,3.00
2017-08-20T21:06:33.508Z,2.90
2017-08-20T21:07:33.523Z,3.20
2017-08-20T21:08:33.546Z,2.80
2017-08-20T21:09:33.567Z,3.10
2017-08-20T21:10:33.596Z,3.10
2017-08-20T21:11:33.946Z,3.00
2017-08-20T21:12:33.644Z,3.00
2017-08-20T21:13:33.690Z,3.10
2017-08-20T21:14:33.695Z,2.90
2017-08-20T21:15:33.715Z,3.00
2017-08-20T21:16:33.764Z,2.50
2017-08-20T21:17:33.753Z,2.80
2017-08-20T21:18:34.075Z,3.10
2017-08-20T21:19:33.799Z,2.80
2017-08-20T21:20:33.825Z,2.80
2017-08-20T21:21:33.846Z,2.90
2017-08-20T21:22:33.872Z,3.10
2017-08-20T21:23:33.890Z,2.90
2017-08-20T21:24:33.924Z,3.00
2017-08-20T21:25:34.257Z,3.00
2017-08-20T21:26:33.966Z,3.00
2017-08-20T21:27:33.983Z,2.90
2017-08-20T21:28:34.007Z,2.90
2017-08-20T21:29:34.032Z,3.20
2017-08-20T21:30:34.053Z,2.90
2017-08-20T21:31:34.080Z,3.30
2017-08-20T21:32:34.120Z,3.10
2017-08-20T21:33:34.172Z,2.90
2017-08-20T21:34:34.144Z,3.20
2017-08-20T21:35:34.171Z,3.30
2017-08-20T21:36:34.198Z,3.20
2017-08-20T21:37:34.507Z,3.20
2017-08-20T21:38:34.242Z,3.30
2017-08-20T21:39:34.272Z,3.40
2017-08-20T21:40:34.281Z,3.20
2017-08-20T21:41:34.311Z,3.20
2017-08-20T21:42:34.333Z,3.20
2017-08-20T21:43:34.724Z,3.60
2017-08-20T21:44:34.391Z,3.40
2017-08-20T21:45:34.406Z,3.10
2017-08-20T21:46:34.455Z,3.30
2017-08-20T21:47:34.504Z,3.00
2017-08-20T21:48:34.474Z,3.10
2017-08-20T21:49:34.803Z,3.40
2017-08-20T21:50:34.530Z,3.50
2017-08-20T21:51:34.565Z,3.10
2017-08-20T21:52:34.562Z,3.60
2017-08-20T21:53:34.592Z,3.40
2017-08-20T21:54:34.620Z,3.10
2017-08-20T21:55:34.930Z,3.40
2017-08-20T21:56:34.716Z,3.20
2017-08-20T21:57:34.677Z,3.10
2017-08-20T21:58:34.703Z,3.10
2017-08-20T21:59:34.729Z,3.10
2017-08-20T22:00:34.747Z,3.40
2017-08-20T22:01:35.067Z,3.40
2017-08-20T22:02:34.807Z,3.30
2017-08-20T22:03:34.818Z,3.10
2017-08-20T22:04:34.853Z,3.10
2017-08-20T22:05:34.866Z,3.10
2017-08-20T22:06:34.901Z,3.00
2017-08-20T22:07:34.936Z,3.30
2017-08-20T22:09:34.957Z,3.10
2017-08-20T22:10:34.987Z,3.40
2017-08-20T22:11:35.000Z,3.00
2017-08-20T22:12:35.036Z,3.30
2017-08-20T22:13:35.342Z,3.50
2017-08-20T22:14:35.068Z,3.10
2017-08-20T22:15:35.093Z,3.20
2017-08-20T22:16:35.117Z,3.30
2017-08-20T22:17:35.994Z,3.40
2017-08-20T22:18:35.210Z,3.50
2017-08-20T22:19:35.469Z,3.30
2017-08-20T22:20:35.259Z,3.20
2017-08-20T22:21:35.254Z,3.10
2017-08-20T22:22:35.262Z,3.20
2017-08-20T22:23:35.291Z,3.70
2017-08-20T22:24:35.302Z,3.30
2017-08-20T22:25:35.617Z,3.20
2017-08-20T22:26:35.372Z,3.40
2017-08-20T22:27:35.373Z,3.20
2017-08-20T22:28:35.406Z,3.80
2017-08-20T22:29:35.430Z,3.40
2017-08-20T22:30:35.440Z,3.80
2017-08-20T22:31:35.748Z,3.40
2017-08-20T22:32:35.490Z,3.80
2017-08-20T22:33:35.514Z,3.80
2017-08-20T22:34:35.535Z,3.80
2017-08-20T22:35:35.554Z,3.90
2017-08-20T22:36:35.579Z,3.30
2017-08-20T22:37:35.611Z,3.60
2017-08-20T22:38:35.907Z,3.20
2017-08-20T22:39:35.677Z,3.80
2017-08-20T22:40:35.671Z,3.90
2017-08-20T22:41:35.725Z,4.00
2017-08-20T22:42:36.468Z,3.80
2017-08-20T22:43:35.736Z,4.00
2017-08-20T22:44:35.759Z,3.60
2017-08-20T22:45:36.068Z,3.60
2017-08-20T22:46:35.805Z,3.80
2017-08-20T22:47:36.211Z,3.50
2017-08-20T22:48:35.851Z,3.80
2017-08-20T22:49:35.897Z,3.40
2017-08-20T22:50:35.899Z,4.00
2017-08-20T22:51:35.925Z,3.80
2017-08-20T22:52:36.226Z,3.70
2017-08-20T22:53:35.981Z,4.00
2017-08-20T22:54:35.997Z,3.70
2017-08-20T22:55:36.016Z,3.60
2017-08-20T22:56:36.038Z,4.10
2017-08-20T22:57:36.065Z,3.70
2017-08-20T22:58:36.091Z,3.70
2017-08-20T22:59:36.400Z,3.70
2017-08-20T23:00:36.668Z,3.80
2017-08-20T23:01:36.164Z,3.80
2017-08-20T23:02:36.182Z,3.60
2017-08-20T23:03:36.207Z,3.30
2017-08-20T23:04:37.015Z,3.40
2017-08-20T23:05:36.244Z,3.40
2017-08-20T23:06:36.558Z,3.40
2017-08-20T23:07:36.290Z,3.50
2017-08-20T23:08:36.313Z,3.60
2017-08-20T23:09:36.352Z,3.90
2017-08-20T23:10:36.357Z,3.70
2017-08-20T23:11:36.385Z,3.70
2017-08-20T23:12:36.411Z,3.50
2017-08-20T23:13:36.719Z,4.20
2017-08-20T23:14:36.453Z,3.50
2017-08-20T23:15:36.477Z,3.30
2017-08-20T23:16:36.577Z,3.40
2017-08-20T23:17:36.521Z,3.30
2017-08-20T23:18:36.548Z,3.50
2017-08-20T23:19:36.598Z,3.50
2017-08-20T23:20:37.648Z,3.10
2017-08-20T23:21:36.616Z,3.50
2017-08-20T23:22:36.637Z,3.60
2017-08-20T23:23:36.668Z,3.20
2017-08-20T23:24:36.710Z,3.40
2017-08-20T23:25:36.703Z,3.40
2017-08-20T23:26:37.022Z,3.40
2017-08-20T23:27:36.759Z,3.20
2017-08-20T23:28:36.784Z,2.90
2017-08-20T23:29:36.798Z,2.90
2017-08-20T23:30:36.819Z,2.90
2017-08-20T23:31:36.852Z,2.60
2017-08-20T23:32:37.156Z,3.40
2017-08-20T23:33:36.894Z,3.00
2017-08-20T23:34:36.916Z,3.30
2017-08-20T23:35:36.936Z,2.90
2017-08-20T23:36:36.965Z,3.40
2017-08-20T23:37:37.005Z,3.20
2017-08-20T23:38:37.308Z,3.10
2017-08-20T23:39:37.028Z,2.90
2017-08-20T23:40:37.054Z,2.80
2017-08-20T23:41:37.079Z,3.00
2017-08-20T23:42:37.105Z,2.80
2017-08-20T23:43:37.117Z,3.10
2017-08-20T23:44:37.437Z,3.10
2017-08-20T23:45:37.176Z,3.50
2017-08-20T23:46:37.193Z,3.00
2017-08-20T23:47:37.218Z,3.30